Impacts TAF Board
For situational awareness. Not to be used for flight planning purposes.
IDs:

KJFK - New York/Kennedy Int, NY, US

Issued at 1132 UTC 16 Sep 2019
Updated at 1256 UTC 16 Sep 2019
Potential Impact None Slight Moderate High
Time<<17/01Z 17/02Z 17/03Z 17/04Z 17/05Z 17/06Z 17/07Z 17/08Z 17/09Z 17/10Z 17/11Z 17/12Z 17/13Z>>
Type PRVL PRVL PRVL PRVL PRVL PRVL PRVL PRVL PRVL PRVL PRVL PRVL PRVL
VIS >6 >6 >6 >6 >6 >6 >6 >6 >6 >6 >6 >6 >6
CIG 50 -- -- -- -- -- -- -- -- -- -- -- --
Cover BKN SCT SCT SCT SCT SKC SKC SKC SKC SKC SKC SKC SKC
FltCat VFR VFR VFR VFR VFR VFR VFR VFR VFR VFR VFR VFR VFR
WX -- -- -- -- -- -- -- -- -- -- -- -- --
WDir 150 30 30 30 30 20 20 20 20 20 20 20 20
WSpd 7 5 5 5 5 10 10 10 10 10 10 10 10
WGst -- -- -- -- -- -- -- -- -- -- -- -- --
Raw TAF
KJFK 161132Z 1612/1718 36004KT P6SM BKN090
  FM161400 05006KT P6SM BKN060
  FM161700 12007KT P6SM BKN050
  FM162100 15007KT P6SM BKN050
  FM170200 03005KT P6SM SCT050
  FM170600 02010KT P6SM SKC


METAR Board
Radar Display
Forecast Discussion
For situational awareness. Not to be used for flight planning purposes.